Time;durP1;ratioP1;P1;durP2;ratioP2;P2;SDS_P1;SDS_P2;PMS_P1;PMS_P2;Temp;Humidity;BMP_temperature;BMP_pressure;BME280_temperature;BME280_humidity;BME280_pressure;Samples;Min_cycle;Max_cycle;Signal;HPM_P1;HPM_P2
2022/07/11 00:00:59;;;;;;;2.50;2.00;;;;;;;17.18;74.22;98754.02;1813731;79;20992;-79
2022/07/11 00:03:26;;;;;;;3.67;2.00;;;;;;;17.15;74.35;98755.59;1813797;79;20972;-79
2022/07/11 00:05:52;;;;;;;3.15;2.20;;;;;;;17.11;74.49;98761.59;1813710;79;21023;-78
2022/07/11 00:08:19;;;;;;;2.20;2.05;;;;;;;17.14;74.51;98768.51;1813709;78;21090;-78
2022/07/11 00:10:46;;;;;;;1.77;1.67;;;;;;;17.11;74.55;98758.09;1813742;78;21695;-79
2022/07/11 00:13:13;;;;;;;2.65;1.65;;;;;;;17.12;74.44;98758.48;1813450;79;21034;-79
2022/07/11 00:15:39;;;;;;;5.10;1.90;;;;;;;17.12;74.50;98759.81;1813521;78;21602;-79
2022/07/11 00:18:06;;;;;;;4.05;1.92;;;;;;;17.07;74.55;98758.32;1814054;79;21055;-78
2022/07/11 00:20:32;;;;;;;8.90;1.80;;;;;;;17.05;74.64;98764.73;1813590;78;21103;-78
2022/07/11 00:22:59;;;;;;;2.02;1.75;;;;;;;17.03;74.66;98758.19;1813781;79;21393;-78
2022/07/11 00:25:25;;;;;;;3.58;1.70;;;;;;;17.03;74.81;98756.86;1812421;78;20992;-78
2022/07/11 00:27:52;;;;;;;1.80;1.70;;;;;;;17.00;74.78;98754.91;1802648;79;20996;-78
2022/07/11 00:30:19;;;;;;;2.72;2.12;;;;;;;16.98;74.93;98752.83;1802757;78;21106;-78
2022/07/11 00:32:45;;;;;;;2.08;1.75;;;;;;;16.96;74.93;98757.41;1802869;78;21039;-78
2022/07/11 00:35:12;;;;;;;3.17;1.90;;;;;;;16.96;74.90;98746.78;1802501;79;21630;-78
2022/07/11 00:37:38;;;;;;;4.45;1.98;;;;;;;16.96;74.91;98738.81;1802455;79;20973;-79
2022/07/11 00:40:07;;;;;;;1.70;1.60;;;;;;;16.95;74.79;98739.30;1803018;79;20972;-78
2022/07/11 00:42:33;;;;;;;2.95;2.00;;;;;;;16.96;74.75;98744.13;1802535;79;21047;-78
2022/07/11 00:45:00;;;;;;;3.33;1.50;;;;;;;16.93;74.69;98747.88;1803120;78;21150;-78
2022/07/11 00:47:26;;;;;;;3.02;1.35;;;;;;;16.90;74.71;98745.43;1802332;79;22414;-79
2022/07/11 00:49:53;;;;;;;1.95;1.85;;;;;;;16.87;74.77;98748.31;1802495;79;21020;-78
2022/07/11 00:52:19;;;;;;;1.60;1.50;;;;;;;16.80;74.86;98745.70;1802885;79;21059;-78
2022/07/11 00:54:47;;;;;;;1.85;1.72;;;;;;;16.74;74.91;98741.66;1802665;79;21025;-79
2022/07/11 00:57:14;;;;;;;4.25;1.60;;;;;;;16.70;75.01;98749.02;1795684;79;21174;-78
2022/07/11 00:59:41;;;;;;;1.75;1.65;;;;;;;16.68;75.02;98748.28;1800740;79;21517;-78
2022/07/11 01:02:07;;;;;;;3.22;2.00;;;;;;;16.70;75.23;98756.14;1801209;79;20985;-78
2022/07/11 01:04:34;;;;;;;1.70;1.60;;;;;;;16.65;75.37;98744.52;1800890;79;20984;-78
2022/07/11 01:07:01;;;;;;;7.80;2.17;;;;;;;16.62;75.46;98746.05;1801055;79;21925;-78
2022/07/11 01:09:28;;;;;;;3.45;1.60;;;;;;;16.61;75.58;98746.16;1801017;79;20961;-79
2022/07/11 01:11:55;;;;;;;5.62;1.80;;;;;;;16.60;75.54;98738.69;1800969;79;21546;-79
2022/07/11 01:14:22;;;;;;;2.02;1.85;;;;;;;16.58;75.73;98737.95;1801117;79;20989;-78
2022/07/11 01:16:49;;;;;;;2.83;1.92;;;;;;;16.60;75.96;98735.19;1800670;79;21008;-78
2022/07/11 01:19:16;;;;;;;2.33;2.10;;;;;;;16.56;76.05;98738.55;1801299;79;21094;-79
2022/07/11 01:21:45;;;;;;;3.50;1.98;;;;;;;16.53;76.09;98733.45;1800533;79;21102;-78
2022/07/11 01:24:12;;;;;;;4.97;2.20;;;;;;;16.52;76.24;98739.71;1801018;79;21135;-79
2022/07/11 01:26:38;;;;;;;3.83;2.10;;;;;;;16.51;76.22;98730.91;1799169;79;20981;-78
2022/07/11 01:29:11;;;;;;;4.72;2.20;;;;;;;16.50;76.41;98735.00;1798197;79;20992;-79
2022/07/11 01:31:39;;;;;;;3.20;2.12;;;;;;;16.43;76.57;98735.91;1797509;79;21039;-79
2022/07/11 01:34:05;;;;;;;2.90;2.00;;;;;;;16.38;76.78;98738.53;1798120;79;21075;-79
2022/07/11 01:36:32;;;;;;;2.00;1.85;;;;;;;16.33;76.94;98739.69;1797963;79;21524;-78
2022/07/11 01:38:59;;;;;;;3.12;2.02;;;;;;;16.30;77.05;98742.56;1797918;79;21054;-78
2022/07/11 01:41:25;;;;;;;2.17;1.70;;;;;;;16.30;77.27;98729.29;1798258;79;21511;-79
2022/07/11 01:43:52;;;;;;;8.85;2.52;;;;;;;16.30;77.20;98723.14;1797740;79;21033;-79
2022/07/11 01:46:19;;;;;;;2.62;1.92;;;;;;;16.30;77.19;98726.63;1798288;79;21444;-79
2022/07/11 01:48:45;;;;;;;5.55;2.05;;;;;;;16.32;77.29;98731.38;1797999;79;21197;-78
2022/07/11 01:51:12;;;;;;;4.58;1.98;;;;;;;16.34;77.32;98729.45;1797921;79;21078;-78
2022/07/11 01:53:39;;;;;;;3.58;1.87;;;;;;;16.34;77.36;98725.97;1797741;79;20996;-79
2022/07/11 01:56:06;;;;;;;2.90;1.98;;;;;;;16.31;77.35;98728.34;1798087;79;21027;-78
2022/07/11 01:58:33;;;;;;;2.47;2.02;;;;;;;16.30;77.54;98723.14;1797562;79;21070;-78
2022/07/11 02:00:59;;;;;;;3.85;2.47;;;;;;;16.25;77.60;98723.45;1774384;79;21475;-78
2022/07/11 02:03:26;;;;;;;2.55;1.87;;;;;;;16.24;77.66;98724.44;1770947;81;21105;-78
2022/07/11 02:05:54;;;;;;;3.30;1.72;;;;;;;16.25;77.76;98723.45;1770729;81;21078;-79
2022/07/11 02:08:21;;;;;;;2.10;1.80;;;;;;;16.23;77.69;98720.56;1770950;81;21027;-78
2022/07/11 02:10:50;;;;;;;4.30;1.98;;;;;;;16.21;78.00;98717.17;1770647;81;21031;-79
2022/07/11 02:13:18;;;;;;;2.27;2.00;;;;;;;16.16;78.16;98718.81;1771164;81;21109;-78
2022/07/11 02:15:46;;;;;;;3.67;2.00;;;;;;;16.14;78.27;98722.91;1770912;81;22272;-78
2022/07/11 02:18:13;;;;;;;3.65;2.02;;;;;;;16.16;78.33;98729.43;1770852;81;21546;-78
2022/07/11 02:20:41;;;;;;;4.20;1.92;;;;;;;16.15;78.48;98730.38;1770670;81;21612;-79
2022/07/11 02:23:08;;;;;;;1.75;1.62;;;;;;;16.15;78.57;98727.27;1770747;81;21411;-78
2022/07/11 02:25:40;;;;;;;2.50;1.50;;;;;;;16.14;78.54;98722.06;1770844;81;21198;-79
2022/07/11 02:28:11;;;;;;;1.82;1.72;;;;;;;16.18;78.70;98720.87;1785755;79;21111;-78
2022/07/11 02:30:35;;;;;;;2.08;1.60;;;;;;;16.16;78.73;98724.96;1786803;80;21107;-79
2022/07/11 02:33:02;;;;;;;3.40;1.45;;;;;;;16.16;78.94;98728.94;1786837;80;21633;-79
2022/07/11 02:35:29;;;;;;;1.77;1.30;;;;;;;16.15;78.89;98731.25;1786848;80;20989;-78
2022/07/11 02:37:55;;;;;;;2.12;1.42;;;;;;;16.16;79.08;98725.45;1786800;80;21157;-78
2022/07/11 02:40:22;;;;;;;1.80;1.70;;;;;;;16.18;79.44;98721.36;1786959;79;21083;-79
2022/07/11 02:42:48;;;;;;;3.35;1.50;;;;;;;16.16;79.62;98726.78;1786559;80;21146;-78
2022/07/11 02:45:15;;;;;;;2.85;2.12;;;;;;;16.14;79.98;98725.55;1786799;80;22044;-78
2022/07/11 02:47:42;;;;;;;2.60;2.00;;;;;;;16.13;80.15;98717.70;1786689;80;20985;-79
2022/07/11 02:50:11;;;;;;;4.80;1.82;;;;;;;16.13;80.27;98717.70;1786954;80;21064;-78
2022/07/11 02:52:38;;;;;;;4.45;1.60;;;;;;;16.12;80.31;98718.64;1798191;78;21043;-78
2022/07/11 02:55:10;;;;;;;2.02;1.72;;;;;;;16.10;80.38;98720.56;1803313;79;21487;-78
2022/07/11 02:57:38;;;;;;;4.42;2.15;;;;;;;16.09;80.50;98715.74;1803557;79;21134;-78
2022/07/11 03:00:11;;;;;;;3.00;2.00;;;;;;;16.08;80.54;98718.50;1803184;79;20988;-79
2022/07/11 03:02:38;;;;;;;4.47;1.90;;;;;;;16.09;80.43;98716.23;1802328;79;21213;-79
2022/07/11 03:05:06;;;;;;;2.12;1.92;;;;;;;16.12;80.36;98715.98;1803245;79;21051;-78
2022/07/11 03:07:33;;;;;;;3.33;1.80;;;;;;;16.10;80.19;98716.09;1803383;79;21004;-79
2022/07/11 03:10:00;;;;;;;2.87;1.80;;;;;;;16.08;80.22;98715.84;1803280;79;21123;-79
2022/07/11 03:12:27;;;;;;;2.02;1.70;;;;;;;16.05;80.27;98721.36;1803588;79;22047;-78
2022/07/11 03:14:53;;;;;;;1.67;1.57;;;;;;;16.03;80.27;98725.94;1803251;79;22234;-78
2022/07/11 03:17:20;;;;;;;2.67;1.55;;;;;;;16.02;80.18;98722.90;1803162;79;21064;-79
2022/07/11 03:19:47;;;;;;;3.90;2.55;;;;;;;16.02;80.12;98722.90;1803323;79;21047;-79
2022/07/11 03:22:15;;;;;;;3.20;2.22;;;;;;;16.03;80.15;98728.59;1803796;79;20981;-78
2022/07/11 03:24:41;;;;;;;2.10;1.57;;;;;;;16.05;80.18;98731.98;1803195;79;21062;-78
2022/07/11 03:27:09;;;;;;;2.67;1.55;;;;;;;16.06;79.92;98727.05;1797405;79;21110;-78
2022/07/11 03:29:36;;;;;;;2.42;1.82;;;;;;;16.06;79.77;98726.56;1789906;79;21638;-78
2022/07/11 03:32:04;;;;;;;3.33;1.85;;;;;;;16.06;79.69;98729.22;1790130;79;21044;-79
2022/07/11 03:34:30;;;;;;;5.47;1.50;;;;;;;16.06;79.61;98735.86;1790322;79;21005;-79
2022/07/11 03:36:57;;;;;;;2.83;1.90;;;;;;;16.08;79.68;98737.08;1789991;79;21072;-78
2022/07/11 03:39:23;;;;;;;2.17;1.90;;;;;;;16.10;79.66;98737.33;1790259;79;21489;-79
2022/07/11 03:41:50;;;;;;;7.12;2.30;;;;;;;16.13;79.61;98742.42;1789712;80;21053;-78
2022/07/11 03:44:16;;;;;;;3.70;2.15;;;;;;;16.16;79.61;98740.05;1790428;79;21575;-79
2022/07/11 03:46:42;;;;;;;4.95;2.42;;;;;;;16.20;79.59;98745.50;1790288;79;21091;-79
2022/07/11 03:49:09;;;;;;;3.45;3.10;;;;;;;16.24;79.50;98745.67;1790345;80;21009;-78
2022/07/11 03:51:36;;;;;;;6.42;3.55;;;;;;;16.29;79.41;98739.55;1790227;80;21283;-80
2022/07/11 03:54:03;;;;;;;9.50;4.15;;;;;;;16.33;79.12;98741.52;1790065;79;22028;-79
2022/07/11 03:56:30;;;;;;;7.35;5.05;;;;;;;16.35;79.16;98748.39;1790286;79;21511;-79
2022/07/11 03:58:56;;;;;;;10.88;6.17;;;;;;;16.37;78.95;98750.94;1790406;80;21043;-78
2022/07/11 04:01:23;;;;;;;9.90;5.97;;;;;;;16.40;78.82;98749.41;1790479;79;21048;-79
2022/07/11 04:03:50;;;;;;;18.48;7.67;;;;;;;16.44;78.57;98754.01;1821731;78;21122;-78
2022/07/11 04:06:17;;;;;;;20.40;8.55;;;;;;;16.45;78.15;98753.06;1838830;78;21027;-78
2022/07/11 04:08:43;;;;;;;18.00;8.10;;;;;;;16.46;78.19;98754.77;1838521;78;21458;-78
2022/07/11 04:11:11;;;;;;;15.53;8.45;;;;;;;16.45;77.93;98757.89;1838649;78;20961;-78
2022/07/11 04:13:39;;;;;;;19.30;9.38;;;;;;;16.47;78.02;98761.27;1838840;78;21094;-79
2022/07/11 04:16:06;;;;;;;23.10;11.53;;;;;;;16.46;78.07;98756.10;1838708;78;21119;-78
2022/07/11 04:18:33;;;;;;;27.45;11.68;;;;;;;16.45;78.25;98757.05;1838651;78;21082;-79
2022/07/11 04:21:00;;;;;;;32.03;13.05;;;;;;;16.43;78.41;98757.16;1838419;78;20977;-79
2022/07/11 04:23:27;;;;;;;29.65;12.88;;;;;;;16.41;78.58;98759.53;1838903;78;21436;-78
2022/07/11 04:25:53;;;;;;;35.78;13.53;;;;;;;16.39;78.61;98753.03;1772555;80;21114;-79
2022/07/11 04:28:19;;;;;;;32.55;14.35;;;;;;;16.41;78.53;98747.12;1770789;80;21120;-78
2022/07/11 04:30:46;;;;;;;35.68;16.15;;;;;;;16.38;78.31;98746.50;1765836;81;21063;-78
2022/07/11 04:33:12;;;;;;;32.30;15.43;;;;;;;16.35;78.25;98744.41;1737469;81;20987;-79
2022/07/11 04:35:39;;;;;;;34.83;14.18;;;;;;;16.34;78.38;98740.56;1760786;81;21606;-79
2022/07/11 04:38:06;;;;;;;36.20;14.58;;;;;;;16.33;78.53;98744.16;1758746;81;21508;-79
2022/07/11 04:40:32;;;;;;;33.15;14.40;;;;;;;16.33;78.69;98745.00;1758854;81;21111;-78
2022/07/11 04:43:00;;;;;;;30.05;14.78;;;;;;;16.31;78.76;98746.09;1745425;81;21602;-79
2022/07/11 04:45:26;;;;;;;34.80;14.07;;;;;;;16.28;78.93;98739.17;1745570;82;21078;-79
2022/07/11 04:47:52;;;;;;;30.37;14.47;;;;;;;16.27;79.00;98737.50;1745865;81;21012;-79
2022/07/11 04:50:19;;;;;;;32.08;14.93;;;;;;;16.27;79.19;98742.80;1745990;82;21083;-78
2022/07/11 04:52:45;;;;;;;38.90;14.68;;;;;;;16.26;79.21;98743.75;1745780;82;21169;-79
2022/07/11 04:55:12;;;;;;;28.00;13.65;;;;;;;16.24;79.38;98747.00;1745542;81;21039;-79
2022/07/11 04:57:39;;;;;;;33.00;12.85;;;;;;;16.26;79.52;98746.41;1745502;82;21067;-79
2022/07/11 05:00:07;;;;;;;31.93;14.63;;;;;;;16.30;79.45;98751.85;1745660;82;21617;-78
2022/07/11 05:02:34;;;;;;;33.20;14.98;;;;;;;16.37;79.25;98751.43;1745448;81;21565;-79
2022/07/11 05:05:01;;;;;;;32.03;13.80;;;;;;;16.37;78.89;98750.94;1745645;81;21676;-79
2022/07/11 05:07:27;;;;;;;30.88;13.85;;;;;;;16.39;79.17;98746.85;1745295;82;21059;-79
2022/07/11 05:09:54;;;;;;;32.83;14.00;;;;;;;16.41;79.06;98752.89;1745491;82;21027;-78
2022/07/11 05:12:21;;;;;;;35.20;13.03;;;;;;;16.39;79.07;98753.48;1745791;81;21134;-79
2022/07/11 05:14:49;;;;;;;30.57;12.60;;;;;;;16.35;79.15;98753.70;1745605;82;21008;-78
2022/07/11 05:17:16;;;;;;;29.07;12.25;;;;;;;16.34;79.31;98746.71;1745508;82;21087;-78
2022/07/11 05:19:42;;;;;;;28.00;11.93;;;;;;;16.35;79.25;98757.69;1745420;82;21123;-79
2022/07/11 05:22:09;;;;;;;32.95;12.90;;;;;;;16.39;79.25;98762.78;1745529;82;21020;-79
2022/07/11 05:24:36;;;;;;;26.73;11.88;;;;;;;16.40;79.37;98763.16;1745477;82;20999;-79
2022/07/11 05:27:03;;;;;;;21.27;11.57;;;;;;;16.41;79.36;98761.73;1745589;82;21070;-79
2022/07/11 05:29:30;;;;;;;29.72;10.88;;;;;;;16.41;79.34;98755.55;1745142;82;21142;-78
2022/07/11 05:31:57;;;;;;;24.23;11.22;;;;;;;16.44;79.52;98763.30;1745034;81;21059;-79
2022/07/11 05:34:25;;;;;;;26.00;9.80;;;;;;;16.48;79.43;98758.16;1745282;81;21004;-78
2022/07/11 05:36:52;;;;;;;19.98;9.60;;;;;;;16.55;79.55;98754.10;1745349;82;21043;-79
2022/07/11 05:39:19;;;;;;;21.62;10.23;;;;;;;16.61;79.35;98758.11;1745257;82;21070;-79
2022/07/11 05:41:46;;;;;;;23.95;10.03;;;;;;;16.66;78.78;98755.52;1745284;81;21122;-79
2022/07/11 05:44:14;;;;;;;22.80;10.00;;;;;;;16.71;78.51;98761.34;1745217;81;21511;-78
2022/07/11 05:46:40;;;;;;;17.23;9.13;;;;;;;16.80;78.47;98756.33;1745143;82;21110;-79
2022/07/11 05:49:10;;;;;;;16.77;8.68;;;;;;;16.90;78.42;98756.06;1745383;82;21000;-79
2022/07/11 05:51:36;;;;;;;22.22;8.48;;;;;;;17.00;78.33;98750.44;1745566;82;21657;-78
2022/07/11 05:54:03;;;;;;;21.02;8.35;;;;;;;17.09;77.93;98747.09;1745283;82;21128;-79
2022/07/11 05:56:29;;;;;;;18.10;9.25;;;;;;;17.20;77.35;98745.47;1745236;82;21137;-79
2022/07/11 05:58:57;;;;;;;20.15;8.38;;;;;;;17.28;76.40;98748.38;1745222;82;21099;-79
2022/07/11 06:01:24;;;;;;;15.75;8.05;;;;;;;17.37;76.71;98743.72;1745180;82;21043;-81
2022/07/11 06:03:50;;;;;;;17.60;8.00;;;;;;;17.49;76.01;98750.41;1749868;80;21114;-78
2022/07/11 06:06:17;;;;;;;13.88;7.17;;;;;;;17.57;75.70;98752.02;1685412;85;21102;-78
2022/07/11 06:08:44;;;;;;;16.90;8.33;;;;;;;17.67;75.99;98745.03;1685726;85;21134;-78
2022/07/11 06:11:13;;;;;;;11.95;6.95;;;;;;;17.80;75.53;98743.59;1722685;83;21066;-78
2022/07/11 06:13:41;;;;;;;13.45;6.67;;;;;;;17.92;74.43;98737.83;1752647;81;21047;-79
2022/07/11 06:16:08;;;;;;;15.32;7.08;;;;;;;18.02;74.96;98744.13;1753079;81;21031;-78
2022/07/11 06:18:36;;;;;;;16.05;6.80;;;;;;;18.12;73.36;98741.14;1753507;81;21114;-78
2022/07/11 06:21:04;;;;;;;16.62;7.20;;;;;;;18.22;73.59;98738.58;1751953;81;21113;-78
2022/07/11 06:23:31;;;;;;;14.10;6.25;;;;;;;18.33;73.07;98739.09;1753026;81;21145;-78
2022/07/11 06:25:59;;;;;;;13.13;6.53;;;;;;;18.38;72.51;98738.23;1752852;81;21142;-78
2022/07/11 06:28:26;;;;;;;14.43;5.42;;;;;;;18.46;72.58;98739.80;1782414;79;21062;-78
2022/07/11 06:30:52;;;;;;;16.70;6.47;;;;;;;18.53;71.79;98741.50;1804902;79;21039;-78
2022/07/11 06:33:20;;;;;;;22.25;6.87;;;;;;;18.62;71.62;98741.23;1805089;79;21007;-80
2022/07/11 06:35:47;;;;;;;10.05;5.85;;;;;;;18.71;72.00;98744.48;1804783;79;21114;-78
2022/07/11 06:38:15;;;;;;;13.48;5.80;;;;;;;18.81;70.68;98744.13;1804776;79;21047;-78
2022/07/11 06:40:42;;;;;;;13.25;5.30;;;;;;;18.88;70.56;98735.17;1805068;79;21044;-79
2022/07/11 06:43:11;;;;;;;11.83;5.83;;;;;;;18.97;70.82;98742.91;1804956;79;21061;-78
2022/07/11 06:45:39;;;;;;;6.50;4.30;;;;;;;19.06;69.42;98736.80;1805049;78;21563;-79
2022/07/11 06:48:06;;;;;;;14.83;5.10;;;;;;;19.11;68.99;98734.60;1805054;79;21072;-79
2022/07/11 06:50:33;;;;;;;9.13;4.95;;;;;;;19.18;69.23;98737.61;1805306;79;21125;-78
2022/07/11 06:52:59;;;;;;;10.85;4.37;;;;;;;19.22;68.45;98741.23;1804674;78;21578;-79
2022/07/11 06:55:26;;;;;;;9.75;4.30;;;;;;;19.27;69.05;98739.03;1805131;79;21057;-78
2022/07/11 06:57:52;;;;;;;7.37;4.28;;;;;;;19.31;68.30;98732.45;1804933;79;21052;-78
2022/07/11 07:00:19;;;;;;;8.95;5.15;;;;;;;19.39;68.61;98730.98;1805219;79;22324;-78
2022/07/11 07:02:45;;;;;;;11.35;5.03;;;;;;;19.49;68.36;98726.57;1805172;78;21100;-78
2022/07/11 07:05:12;;;;;;;11.43;4.85;;;;;;;19.57;68.27;98733.45;1805171;79;21056;-78
2022/07/11 07:07:38;;;;;;;7.45;4.33;;;;;;;19.66;67.37;98731.81;1805316;78;21061;-79
2022/07/11 07:10:06;;;;;;;8.93;4.35;;;;;;;19.74;67.33;98729.84;1805091;79;20978;-77
2022/07/11 07:12:37;;;;;;;9.63;3.22;;;;;;;19.84;67.24;98726.77;1805473;79;21063;-78
2022/07/11 07:15:05;;;;;;;6.42;3.42;;;;;;;19.98;68.09;98730.42;1804086;78;21072;-78
2022/07/11 07:17:31;;;;;;;6.30;3.55;;;;;;;20.16;66.44;98728.48;1804974;79;21033;-78
2022/07/11 07:19:58;;;;;;;6.85;3.25;;;;;;;20.27;65.26;98739.05;1804884;79;21137;-79
2022/07/11 07:22:24;;;;;;;10.40;3.27;;;;;;;20.41;65.25;98732.03;1805030;79;21042;-78
2022/07/11 07:24:51;;;;;;;4.15;2.90;;;;;;;20.56;64.25;98732.97;1805169;79;21056;-78
2022/07/11 07:27:18;;;;;;;5.30;3.33;;;;;;;20.70;63.72;98735.31;1805056;79;21096;-78
2022/07/11 07:29:45;;;;;;;6.83;3.17;;;;;;;20.82;62.72;98729.86;1804832;79;21045;-78
2022/07/11 07:32:11;;;;;;;8.75;2.90;;;;;;;20.91;63.23;98726.34;1805049;79;21004;-78
2022/07/11 07:34:37;;;;;;;6.80;2.60;;;;;;;21.04;63.17;98729.59;1804768;79;21485;-78
2022/07/11 07:37:04;;;;;;;7.35;2.47;;;;;;;21.19;62.46;98728.70;1805197;79;20997;-79
2022/07/11 07:39:31;;;;;;;3.37;2.30;;;;;;;21.27;60.42;98727.51;1804986;79;21103;-78
2022/07/11 07:41:57;;;;;;;4.47;2.30;;;;;;;21.31;60.19;98732.08;1804874;79;21096;-79
2022/07/11 07:44:24;;;;;;;3.05;2.10;;;;;;;21.31;59.61;98724.89;1805363;79;21511;-79
2022/07/11 07:46:50;;;;;;;4.75;2.50;;;;;;;21.30;59.79;98733.05;1804765;79;20960;-78
2022/07/11 07:49:17;;;;;;;4.00;1.80;;;;;;;21.31;59.72;98723.55;1805002;78;21829;-79
2022/07/11 07:51:43;;;;;;;5.60;1.65;;;;;;;21.38;58.71;98729.69;1805055;79;21111;-78
2022/07/11 07:54:10;;;;;;;1.50;1.37;;;;;;;21.42;58.53;98725.26;1805048;78;21104;-78
2022/07/11 07:56:37;;;;;;;5.40;1.40;;;;;;;21.48;58.38;98730.05;1805021;78;21120;-78
2022/07/11 07:59:03;;;;;;;4.58;1.30;;;;;;;21.51;57.37;98735.13;1804927;78;21107;-79
2022/07/11 08:01:36;;;;;;;2.80;1.30;;;;;;;21.50;57.80;98724.09;1805367;79;21025;-79
2022/07/11 08:04:05;;;;;;;4.58;1.40;;;;;;;21.49;57.08;98723.72;1805270;79;21056;-79
2022/07/11 08:06:34;;;;;;;1.67;1.20;;;;;;;21.56;57.01;98728.52;1805351;79;22050;-78
2022/07/11 08:09:02;;;;;;;7.78;1.45;;;;;;;21.63;56.40;98730.47;1804680;79;21110;-78
2022/07/11 08:11:30;;;;;;;5.08;1.15;;;;;;;21.64;55.19;98721.45;1805449;79;21129;-79
2022/07/11 08:13:57;;;;;;;4.33;0.90;;;;;;;21.64;55.16;98724.64;1804710;79;21068;-78
2022/07/11 08:16:23;;;;;;;3.55;0.90;;;;;;;21.62;55.62;98723.91;1805122;78;20991;-78
2022/07/11 08:18:50;;;;;;;1.82;0.80;;;;;;;21.61;55.42;98720.91;1804990;79;21696;-79
2022/07/11 08:21:16;;;;;;;1.80;0.90;;;;;;;21.59;55.80;98720.20;1805067;78;21584;-77
2022/07/11 08:23:44;;;;;;;1.57;0.95;;;;;;;21.54;55.20;98734.02;1804802;79;21590;-78
2022/07/11 08:26:10;;;;;;;5.22;1.00;;;;;;;21.55;54.99;98728.16;1804984;78;21011;-78
2022/07/11 08:28:37;;;;;;;1.62;0.90;;;;;;;21.56;54.44;98729.36;1807770;78;21035;-78
2022/07/11 08:31:03;;;;;;;0.70;0.70;;;;;;;21.59;55.29;98733.59;1810832;79;21012;-79
2022/07/11 08:33:30;;;;;;;4.67;0.85;;;;;;;21.64;55.67;98739.36;1813307;78;21126;-78
2022/07/11 08:35:57;;;;;;;1.50;1.00;;;;;;;21.65;54.90;98736.55;1814281;78;21098;-78
2022/07/11 08:38:23;;;;;;;2.92;1.02;;;;;;;21.65;54.98;98738.36;1814559;79;21032;-78
2022/07/11 08:40:51;;;;;;;3.40;0.90;;;;;;;21.69;55.17;98734.42;1814518;78;21047;-78
2022/07/11 08:43:22;;;;;;;4.47;0.90;;;;;;;21.75;55.59;98741.02;1814552;79;21066;-78
2022/07/11 08:45:49;;;;;;;3.27;1.00;;;;;;;21.79;55.65;98736.59;1812961;79;21091;-78
2022/07/11 08:48:16;;;;;;;3.37;1.32;;;;;;;21.81;55.28;98741.30;1814712;79;21094;-78
2022/07/11 08:50:42;;;;;;;2.25;1.02;;;;;;;21.84;55.57;98742.36;1814474;79;21058;-78
2022/07/11 08:53:10;;;;;;;2.10;0.90;;;;;;;21.92;55.73;98743.45;1814516;79;20976;-78
2022/07/11 08:55:37;;;;;;;1.72;1.00;;;;;;;22.00;55.48;98734.20;1814358;79;21470;-77
2022/07/11 08:58:04;;;;;;;4.53;1.50;;;;;;;22.11;55.56;98741.22;1814563;79;21844;-78
2022/07/11 09:00:30;;;;;;;0.95;0.90;;;;;;;22.18;54.92;98744.52;1780518;79;21570;-78
2022/07/11 09:02:57;;;;;;;1.10;0.88;;;;;;;22.21;55.57;98745.56;1814409;79;21062;-78
2022/07/11 09:05:23;;;;;;;1.30;0.90;;;;;;;22.19;55.38;98742.20;1814416;78;20976;-78
2022/07/11 09:07:50;;;;;;;8.03;1.07;;;;;;;22.16;53.90;98743.82;1814719;79;21047;-78
2022/07/11 09:10:18;;;;;;;1.37;0.80;;;;;;;22.13;53.69;98744.62;1814421;78;21055;-78
2022/07/11 09:13:05;;;;;;;2.83;0.93;;;;;;;22.08;53.07;98742.36;1814500;79;21023;-79
2022/07/11 09:15:45;;;;;;;3.55;1.10;;;;;;;22.06;53.48;98740.34;1814665;79;21467;-78
2022/07/11 09:18:38;;;;;;;0.90;0.80;;;;;;;22.13;54.88;98744.11;1814643;79;21039;-78
2022/07/11 09:26:47;;;;;;;1.65;0.88;;;;;;;22.44;53.48;98735.36;1814723;79;20988;-77
2022/07/11 09:29:15;;;;;;;1.25;0.95;;;;;;;22.48;52.54;98727.86;1807563;78;21031;-78
2022/07/11 09:31:46;;;;;;;2.77;0.72;;;;;;;22.48;52.71;98731.88;1801229;79;21130;-78
2022/07/11 09:34:16;;;;;;;1.60;0.98;;;;;;;22.45;52.16;98737.53;1801255;79;22222;-78
2022/07/11 09:36:51;;;;;;;2.30;1.10;;;;;;;22.37;53.16;98731.56;1801277;79;21199;-78
2022/07/11 09:39:24;;;;;;;2.62;0.90;;;;;;;22.43;53.69;98732.83;1800724;79;21051;-77
2022/07/11 09:41:52;;;;;;;1.70;1.50;;;;;;;22.49;54.50;98728.70;1801177;79;21086;-78
2022/07/11 09:44:33;;;;;;;2.22;1.50;;;;;;;22.54;54.50;98725.91;1800476;79;21140;-78
2022/07/11 09:47:00;;;;;;;2.98;1.00;;;;;;;22.58;53.29;98720.61;1801059;79;21590;-78
2022/07/11 09:49:35;;;;;;;2.12;0.98;;;;;;;22.55;53.85;98720.06;1801303;79;21597;-78
2022/07/11 09:52:16;;;;;;;1.82;1.10;;;;;;;22.53;52.92;98720.22;1801045;79;21666;-77
2022/07/11 09:54:56;;;;;;;1.22;1.07;;;;;;;22.49;51.23;98715.30;1801112;79;21146;-78
2022/07/11 09:57:34;;;;;;;1.27;1.02;;;;;;;22.43;52.34;98720.26;1800068;79;21605;-79
2022/07/11 10:00:11;;;;;;;2.08;1.20;;;;;;;22.43;53.33;98716.23;1823709;77;20932;-78
2022/07/11 10:02:38;;;;;;;1.82;1.07;;;;;;;22.48;51.98;98721.63;1847308;77;21093;-78
2022/07/11 10:05:05;;;;;;;1.42;1.00;;;;;;;22.50;52.55;98717.83;1847320;77;21122;-78
2022/07/11 10:07:33;;;;;;;2.22;1.12;;;;;;;22.53;53.14;98717.53;1847397;77;21467;-78
2022/07/11 10:10:01;;;;;;;0.80;0.80;;;;;;;22.56;51.84;98711.88;1847307;77;21033;-77
2022/07/11 10:12:31;;;;;;;1.98;1.10;;;;;;;22.61;52.72;98714.09;1847296;77;21557;-78
2022/07/11 10:15:01;;;;;;;3.70;2.17;;;;;;;22.70;53.76;98719.08;1847332;77;21226;-78
2022/07/11 10:17:56;;;;;;;8.20;3.95;;;;;;;22.76;53.13;98722.47;1847329;77;21042;-78
2022/07/11 10:20:46;;;;;;;7.28;3.30;;;;;;;22.63;54.12;98736.26;1772441;80;21015;-79
2022/07/11 10:23:38;;;;;;;11.75;3.33;;;;;;;22.42;54.48;98718.55;1787416;80;21102;-79
2022/07/11 10:26:34;;;;;;;9.95;3.75;;;;;;;22.20;54.32;98725.11;1772256;80;21395;-79
2022/07/11 10:29:12;;;;;;;17.30;3.95;;;;;;;22.03;55.99;98718.69;1773670;80;21743;-78
2022/07/11 10:31:39;;;;;;;11.05;5.35;;;;;;;21.94;55.67;98717.37;1736454;81;21102;-78
2022/07/11 10:34:16;;;;;;;28.50;12.47;;;;;;;21.90;55.72;98726.19;1760580;81;20997;-78
2022/07/11 10:36:41;;;;;;;18.35;7.08;;;;;;;21.80;56.31;98726.20;1729187;81;21510;-78
2022/07/11 10:39:18;;;;;;;9.93;4.78;;;;;;;21.74;56.50;98729.48;1766406;81;21113;-78
2022/07/11 10:41:45;;;;;;;13.00;5.30;;;;;;;21.64;56.47;98729.99;1766778;81;21128;-78
2022/07/11 10:44:12;;;;;;;10.95;4.75;;;;;;;21.51;56.61;98735.13;1765907;81;21141;-77
2022/07/11 10:46:38;;;;;;;10.88;4.75;;;;;;;21.26;56.59;98735.67;1766751;81;21117;-78
2022/07/11 10:49:18;;;;;;;6.40;4.05;;;;;;;21.08;57.48;98736.37;1766368;81;21134;-78
2022/07/11 10:52:04;;;;;;;8.53;3.80;;;;;;;20.88;58.15;98742.66;1766820;81;21141;-78
2022/07/11 10:55:01;;;;;;;7.75;4.17;;;;;;;20.68;58.05;98749.31;1766370;81;21097;-78
2022/07/11 10:58:15;;;;;;;7.58;3.40;;;;;;;20.49;58.92;98743.36;1743690;81;21059;-78
2022/07/11 11:00:42;;;;;;;5.65;2.60;;;;;;;20.36;58.67;98746.28;1766917;81;21074;-78
2022/07/11 11:03:12;;;;;;;7.35;2.80;;;;;;;20.16;59.16;98743.17;1766760;81;21495;-78
2022/07/11 11:05:54;;;;;;;7.45;3.35;;;;;;;19.98;59.95;98742.43;1743922;81;21058;-78
2022/07/11 11:08:43;;;;;;;7.00;2.87;;;;;;;19.84;60.95;98748.12;1766739;81;21133;-78
2022/07/11 11:11:34;;;;;;;7.15;3.02;;;;;;;19.73;61.57;98741.48;1766706;81;21055;-78
2022/07/11 11:14:21;;;;;;;5.72;2.98;;;;;;;19.65;62.33;98741.66;1765978;81;21062;-78
2022/07/11 11:16:49;;;;;;;6.03;2.98;;;;;;;19.60;62.54;98749.20;1766921;81;21030;-78
2022/07/11 11:19:50;;;;;;;5.60;2.50;;;;;;;19.49;62.53;98746.08;1766616;81;21157;-78
2022/07/11 11:22:19;;;;;;;8.98;3.15;;;;;;;19.40;63.20;98746.00;1766949;81;21576;-78
2022/07/11 11:24:47;;;;;;;6.50;1.92;;;;;;;19.31;63.46;98743.13;1766407;81;21102;-78
2022/07/11 11:27:25;;;;;;;2.85;1.60;;;;;;;19.25;63.04;98742.32;1766802;81;21015;-78
2022/07/11 11:29:55;;;;;;;5.83;1.52;;;;;;;19.21;62.90;98750.20;1767986;80;21014;-79
2022/07/11 11:32:24;;;;;;;3.30;1.62;;;;;;;19.20;61.71;98748.98;1769322;81;21099;-78
2022/07/11 11:34:51;;;;;;;4.05;1.30;;;;;;;19.17;60.94;98755.94;1768924;81;21382;-78
2022/07/11 11:37:17;;;;;;;6.30;1.20;;;;;;;19.08;61.15;98760.17;1735069;82;21044;-78
2022/07/11 11:39:44;;;;;;;3.30;1.37;;;;;;;19.04;60.92;98763.59;1805900;78;21035;-79
2022/07/11 11:42:14;;;;;;;3.30;1.52;;;;;;;18.99;60.00;98764.94;1804993;78;21118;-78